createdAt,value
2018-05-21T00:00:57.961Z,59.00
2018-05-21T00:06:00.521Z,59.20
2018-05-21T00:11:03.110Z,58.90
2018-05-21T00:16:05.639Z,59.20
2018-05-21T00:21:08.186Z,59.20
2018-05-21T00:26:10.745Z,59.40
2018-05-21T00:31:13.293Z,59.60
2018-05-21T00:36:15.836Z,59.70
2018-05-21T00:41:18.403Z,59.80
2018-05-21T00:46:21.722Z,60.50
2018-05-21T00:51:25.016Z,60.20
2018-05-21T00:56:27.560Z,60.20
2018-05-21T01:01:30.087Z,60.40
2018-05-21T01:06:32.625Z,60.50
2018-05-21T01:11:35.187Z,60.70
2018-05-21T01:16:38.093Z,60.70
2018-05-21T01:21:40.657Z,61.20
2018-05-21T01:26:43.243Z,61.30
2018-05-21T01:31:46.533Z,61.80
2018-05-21T01:36:49.065Z,61.80
2018-05-21T01:41:51.612Z,61.80
2018-05-21T01:46:54.413Z,61.90
2018-05-21T01:51:56.956Z,62.10
2018-05-21T01:56:59.508Z,61.90
2018-05-21T02:02:02.042Z,62.30
2018-05-21T02:07:04.572Z,62.20
2018-05-21T02:12:07.090Z,62.30
2018-05-21T02:17:09.627Z,62.10
2018-05-21T02:22:12.166Z,62.70
2018-05-21T02:27:14.793Z,62.70
2018-05-21T02:32:17.423Z,62.60
2018-05-21T02:37:19.946Z,62.70
2018-05-21T02:42:22.489Z,62.90
2018-05-21T02:47:25.137Z,63.00
2018-05-21T02:52:27.696Z,63.40
2018-05-21T02:57:30.245Z,63.40
2018-05-21T03:02:32.805Z,63.50
2018-05-21T03:07:35.326Z,63.80
2018-05-21T03:12:37.862Z,63.90
2018-05-21T03:17:40.465Z,64.40
2018-05-21T03:22:42.985Z,63.80
2018-05-21T03:27:45.536Z,64.30
2018-05-21T03:32:48.061Z,64.70
2018-05-21T03:37:50.585Z,64.60
2018-05-21T03:42:53.158Z,64.70
2018-05-21T03:47:55.742Z,64.80
2018-05-21T03:52:59.070Z,65.60
2018-05-21T03:58:01.613Z,65.60
2018-05-21T04:03:27.702Z,65.70
2018-05-21T04:08:30.237Z,65.90
2018-05-21T04:13:33.596Z,66.70
2018-05-21T04:18:36.145Z,66.70
2018-05-21T04:23:38.768Z,66.60
2018-05-21T04:28:41.306Z,66.80
2018-05-21T04:33:43.839Z,67.40
2018-05-21T04:38:46.407Z,67.70
2018-05-21T04:43:49.236Z,67.80
2018-05-21T04:48:55.375Z,67.60
2018-05-21T04:53:59.044Z,68.00
2018-05-21T04:59:05.781Z,68.20
2018-05-21T05:04:16.005Z,67.90
2018-05-21T05:09:18.633Z,68.00
2018-05-21T05:14:21.275Z,67.70
2018-05-21T05:19:23.827Z,67.40
2018-05-21T05:24:26.359Z,67.10
2018-05-21T05:29:28.910Z,67.10
2018-05-21T05:34:33.373Z,67.80
2018-05-21T05:39:36.164Z,68.40
2018-05-21T05:44:39.401Z,67.60
2018-05-21T05:49:41.999Z,67.90
2018-05-21T05:54:44.559Z,67.40
2018-05-21T05:59:47.146Z,66.70
2018-05-21T06:04:49.700Z,66.70
2018-05-21T06:09:52.259Z,65.00
2018-05-21T06:14:54.858Z,64.60
2018-05-21T06:19:57.403Z,64.20
2018-05-21T06:25:00.847Z,63.40
2018-05-21T06:30:03.451Z,62.80
2018-05-21T06:35:07.587Z,62.50
2018-05-21T06:40:10.601Z,60.90
2018-05-21T06:45:13.411Z,59.90
2018-05-21T06:50:16.095Z,59.10
2018-05-21T06:55:20.203Z,58.50
2018-05-21T07:52:11.110Z,51.20
2018-05-21T07:57:15.649Z,50.50
2018-05-21T08:02:19.359Z,50.30
2018-05-21T08:07:23.046Z,50.80
2018-05-21T08:12:25.792Z,50.10
2018-05-21T08:17:30.752Z,47.70
2018-05-21T08:22:33.763Z,48.60
2018-05-21T08:27:36.908Z,49.00
2018-05-21T08:32:41.176Z,46.90
2018-05-21T08:37:43.857Z,46.90
2018-05-21T08:42:48.552Z,47.30
2018-05-21T08:47:51.567Z,46.80
2018-05-21T08:52:54.353Z,46.70
2018-05-21T09:03:07.137Z,46.20
2018-05-21T09:08:09.865Z,45.10
2018-05-21T09:13:12.727Z,45.50
2018-05-21T09:18:16.163Z,45.10
2018-05-21T09:23:19.142Z,45.10
2018-05-21T09:28:22.003Z,45.20
2018-05-21T09:33:25.785Z,44.30
2018-05-21T09:38:28.909Z,44.00
2018-05-21T09:43:31.740Z,44.00
2018-05-21T09:48:34.417Z,43.30
2018-05-21T09:53:37.165Z,43.10
2018-05-21T09:58:40.118Z,43.80
2018-05-21T10:03:43.204Z,43.70
2018-05-21T10:08:46.061Z,43.40
2018-05-21T10:13:49.269Z,43.40
2018-05-21T10:18:52.052Z,42.50
2018-05-21T10:23:55.087Z,43.50
2018-05-21T10:28:57.982Z,42.30
2018-05-21T10:34:00.603Z,42.40
2018-05-21T10:39:03.526Z,42.70
2018-05-21T10:44:06.158Z,41.90
2018-05-21T10:49:08.741Z,43.10
2018-05-21T10:54:12.012Z,41.50
2018-05-21T10:59:14.668Z,41.40
2018-05-21T11:04:17.272Z,40.80
2018-05-21T11:09:19.821Z,40.20
2018-05-21T11:14:23.225Z,39.70
2018-05-21T11:19:26.086Z,39.60
2018-05-21T11:24:28.694Z,39.40
2018-05-21T11:29:31.307Z,40.20
2018-05-21T11:34:33.838Z,39.80
2018-05-21T11:39:36.413Z,40.10
2018-05-21T11:44:39.347Z,39.80
2018-05-21T11:49:41.993Z,39.00
2018-05-21T11:54:45.223Z,38.70
2018-05-21T11:59:48.011Z,39.00
2018-05-21T12:04:50.829Z,39.30
2018-05-21T12:09:53.723Z,39.40
2018-05-21T12:14:57.633Z,38.10
2018-05-21T12:20:00.635Z,38.00
2018-05-21T12:25:03.593Z,39.20
2018-05-21T12:30:07.264Z,39.00
2018-05-21T12:35:10.161Z,38.70
2018-05-21T12:40:12.918Z,37.90
2018-05-21T12:45:16.022Z,37.80
2018-05-21T12:50:19.305Z,37.20
2018-05-21T12:55:22.142Z,35.90
2018-05-21T13:00:24.809Z,35.70
2018-05-21T13:05:28.009Z,37.20
2018-05-21T13:10:31.476Z,36.30
2018-05-21T13:15:34.914Z,36.20
2018-05-21T13:20:38.216Z,35.50
2018-05-21T13:25:41.002Z,34.90
2018-05-21T13:30:44.294Z,35.50
2018-05-21T13:35:47.921Z,34.90
2018-05-21T13:40:52.054Z,36.90
2018-05-21T13:45:55.989Z,36.90
2018-05-21T13:50:58.887Z,36.40
2018-05-21T13:56:01.615Z,35.90
2018-05-21T14:01:04.676Z,36.10
2018-05-21T14:06:07.300Z,36.60
2018-05-21T14:11:10.028Z,36.30
2018-05-21T14:16:12.683Z,36.60
2018-05-21T14:21:15.488Z,36.20
2018-05-21T14:26:18.307Z,37.50
2018-05-21T14:31:20.905Z,36.20
2018-05-21T14:36:23.608Z,36.80
2018-05-21T14:41:26.352Z,37.40
2018-05-21T14:46:29.097Z,37.60
2018-05-21T14:51:32.413Z,37.60
2018-05-21T14:56:35.035Z,37.70
2018-05-21T15:01:38.779Z,38.30
2018-05-21T15:06:42.137Z,38.30
2018-05-21T15:11:45.573Z,38.80
2018-05-21T15:16:48.176Z,39.40
2018-05-21T15:21:51.036Z,40.10
2018-05-21T15:26:54.131Z,40.60
2018-05-21T15:31:57.222Z,40.80
2018-05-21T15:36:59.841Z,41.20
2018-05-21T15:42:02.850Z,42.00
2018-05-21T15:47:07.073Z,41.30
2018-05-21T15:52:09.967Z,41.50
2018-05-21T15:57:12.565Z,41.70
2018-05-21T16:02:15.148Z,41.80
2018-05-21T16:07:18.542Z,41.90
2018-05-21T16:12:21.438Z,41.80
2018-05-21T16:17:24.956Z,42.80
2018-05-21T16:22:27.535Z,42.20
2018-05-21T16:27:34.301Z,42.30
2018-05-21T16:32:43.370Z,41.90
2018-05-21T16:37:50.346Z,42.20
2018-05-21T16:42:56.251Z,42.00
2018-05-21T16:48:00.652Z,42.20
2018-05-21T16:53:08.758Z,42.30
2018-05-21T16:58:17.765Z,42.40
2018-05-21T17:03:23.313Z,42.30
2018-05-21T17:08:35.621Z,42.50
2018-05-21T17:18:58.650Z,42.70
2018-05-21T17:24:03.747Z,42.80
2018-05-21T17:45:03.824Z,43.10
2018-05-21T17:55:49.352Z,43.60
2018-05-21T18:17:56.243Z,44.10
2018-05-21T18:23:03.730Z,44.40
2018-05-21T18:33:24.565Z,44.90
2018-05-21T18:43:43.865Z,45.90
2018-05-21T18:48:57.515Z,46.50
2018-05-21T18:59:12.556Z,47.40
2018-05-21T19:09:32.953Z,47.40
2018-05-21T19:14:40.512Z,47.70
2018-05-21T19:19:48.650Z,48.30
2018-05-21T19:24:51.338Z,48.80
2018-05-21T19:29:54.151Z,49.10
2018-05-21T19:34:56.802Z,49.50
2018-05-21T19:40:01.353Z,49.70
2018-05-21T19:45:04.145Z,50.10
2018-05-21T19:50:06.883Z,50.60
2018-05-21T19:55:10.088Z,51.00
2018-05-21T20:00:12.674Z,51.40
2018-05-21T20:05:21.581Z,51.60
2018-05-21T20:10:24.322Z,52.30
2018-05-21T20:15:28.077Z,53.00
2018-05-21T20:20:41.592Z,53.00
2018-05-21T20:25:45.188Z,53.30
2018-05-21T20:30:48.784Z,53.60
2018-05-21T20:35:51.951Z,53.70
2018-05-21T20:40:54.874Z,54.20
2018-05-21T20:45:57.703Z,54.50
2018-05-21T20:51:00.698Z,54.70
2018-05-21T20:56:03.654Z,55.00
2018-05-21T21:01:06.494Z,55.30
2018-05-21T21:06:09.583Z,55.50
2018-05-21T21:11:12.585Z,55.50
2018-05-21T21:16:16.405Z,56.10
2018-05-21T21:21:19.131Z,56.10
2018-05-21T21:26:22.469Z,56.10
2018-05-21T21:31:25.398Z,56.30
2018-05-21T21:36:29.734Z,56.30
2018-05-21T21:41:33.027Z,57.20
2018-05-21T21:46:35.933Z,57.00
2018-05-21T21:51:39.716Z,57.30
2018-05-21T21:56:42.465Z,57.60
2018-05-21T22:01:46.131Z,57.80
2018-05-21T22:06:49.693Z,58.50
2018-05-21T22:11:52.698Z,58.40
2018-05-21T22:16:55.459Z,58.60
2018-05-21T22:21:58.408Z,58.90
2018-05-21T22:27:01.203Z,59.20
2018-05-21T22:32:04.205Z,59.50
2018-05-21T22:37:07.116Z,60.10
2018-05-21T22:42:10.037Z,60.10
2018-05-21T22:47:13.444Z,59.90
2018-05-21T22:52:17.027Z,59.90
2018-05-21T22:57:21.309Z,60.20
2018-05-21T23:02:25.048Z,60.90
2018-05-21T23:07:28.439Z,60.90
2018-05-21T23:12:32.340Z,61.20
2018-05-21T23:17:35.127Z,61.00
2018-05-21T23:22:45.147Z,61.10
2018-05-21T23:27:47.954Z,61.20
2018-05-21T23:32:50.893Z,61.20
2018-05-21T23:37:53.869Z,61.70
2018-05-21T23:42:56.658Z,62.70
2018-05-21T23:47:59.408Z,62.50
2018-05-21T23:53:02.370Z,62.50
2018-05-21T23:58:05.246Z,62.90
